ADDS TAF Data INFO
IDs: Format: Raw Decoded Include METARs

Data at: 0054 UTC 21 Nov 2017

TAF for:KCYS (Cheyenne Rgnl, WY, US) issued at 2341 UTC 20 Nov 2017
Text:KCYS 202341Z 2100/2124 29020G33KT P6SM BKN150
Forecast period:0000 to 0500 UTC 21 November 2017
Forecast type:FROM: standard forecast or significant change
Winds:from the WNW (290 degrees) at 23 MPH (20 knots; 10.3 m/s) gusting to 38 MPH (33 knots; 17.0 m/s)
Visibility:6 or more sm (10+ km)
Ceiling:15000 feet AGL
Clouds: broken clouds at 15000 feet AGL
Text:FM210500 30025G40KT P6SM BKN100
Forecast period:0500 to 1100 UTC 21 November 2017
Forecast type:FROM: standard forecast or significant change
Winds:from the WNW (300 degrees) at 29 MPH (25 knots; 12.9 m/s) gusting to 46 MPH (40 knots; 20.6 m/s)
Visibility:6 or more sm (10+ km)
Ceiling:10000 feet AGL
Clouds: broken clouds at 10000 feet AGL
Text:FM211100 32014KT P6SM BKN040
Forecast period:1100 to 1800 UTC 21 November 2017
Forecast type:FROM: standard forecast or significant change
Winds:from the NW (320 degrees) at 16 MPH (14 knots; 7.2 m/s)
Visibility:6 or more sm (10+ km)
Ceiling:4000 feet AGL
Clouds: broken clouds at 4000 feet AGL
Text:FM211800 29010KT P6SM BKN040
Forecast period:1800 UTC 21 November 2017 to 0000 UTC 22 November 2017
Forecast type:FROM: standard forecast or significant change
Winds:from the WNW (290 degrees) at 12 MPH (10 knots; 5.1 m/s)
Visibility:6 or more sm (10+ km)
Ceiling:4000 feet AGL
Clouds: broken clouds at 4000 feet AGL